createdAt,value
2023-03-21T00:02:13.666Z,6.00
2023-03-21T00:05:16.520Z,5.63
2023-03-21T00:08:19.898Z,5.57
2023-03-21T00:11:22.253Z,5.70
2023-03-21T00:14:26.198Z,5.70
2023-03-21T00:17:31.256Z,5.80
2023-03-21T00:20:37.999Z,5.65
2023-03-21T00:23:40.314Z,6.32
2023-03-21T00:26:42.687Z,5.57
2023-03-21T00:29:45.014Z,5.60
2023-03-21T00:32:55.338Z,5.67
2023-03-21T00:36:04.965Z,5.85
2023-03-21T00:39:09.881Z,5.55
2023-03-21T00:42:12.232Z,5.55
2023-03-21T00:45:15.560Z,5.53
2023-03-21T00:48:19.095Z,6.00
2023-03-21T00:51:28.895Z,6.03
2023-03-21T00:54:31.199Z,5.97
2023-03-21T00:57:39.315Z,6.10
2023-03-21T01:00:42.428Z,6.83
2023-03-21T01:03:50.944Z,6.40
2023-03-21T01:06:54.197Z,5.80
2023-03-21T01:09:56.556Z,5.65
2023-03-21T01:12:59.359Z,5.68
2023-03-21T01:16:06.978Z,5.70
2023-03-21T01:19:24.007Z,5.80
2023-03-21T01:22:27.674Z,5.93
2023-03-21T01:25:30.315Z,6.50
2023-03-21T01:28:33.347Z,6.47
2023-03-21T01:31:35.770Z,6.30
2023-03-21T01:34:38.212Z,6.40
2023-03-21T01:37:41.234Z,6.20
2023-03-21T01:40:45.860Z,6.05
2023-03-21T01:43:56.663Z,6.40
2023-03-21T01:47:12.944Z,6.90
2023-03-21T01:50:37.088Z,5.97
2023-03-21T01:54:12.757Z,6.68
2023-03-21T01:57:40.998Z,5.97
2023-03-21T02:00:50.825Z,6.00
2023-03-21T02:04:16.957Z,5.73
2023-03-21T02:07:43.985Z,6.07
2023-03-21T02:10:51.508Z,6.20
2023-03-21T02:14:07.649Z,6.35
2023-03-21T02:17:49.469Z,6.10
2023-03-21T02:21:33.210Z,6.47
2023-03-21T02:25:13.402Z,5.93
2023-03-21T02:28:34.388Z,5.60
2023-03-21T02:32:09.279Z,5.50
2023-03-21T02:35:31.078Z,5.50
2023-03-21T02:38:42.882Z,5.67
2023-03-21T02:41:49.529Z,6.17
2023-03-21T02:45:18.936Z,5.63
2023-03-21T02:48:49.723Z,5.30
2023-03-21T02:51:54.290Z,5.65
2023-03-21T02:55:00.112Z,5.43
2023-03-21T02:58:17.412Z,5.27
2023-03-21T03:01:26.029Z,5.82
2023-03-21T03:04:28.926Z,5.88
2023-03-21T03:07:45.694Z,5.25
2023-03-21T03:11:00.418Z,5.90
2023-03-21T03:14:25.432Z,5.53
2023-03-21T03:17:37.432Z,4.90
2023-03-21T03:21:04.802Z,5.40
2023-03-21T03:24:11.547Z,5.10
2023-03-21T03:27:18.578Z,5.13
2023-03-21T03:30:23.811Z,5.17
2023-03-21T03:33:28.264Z,5.30
2023-03-21T03:36:36.976Z,4.93
2023-03-21T03:39:51.737Z,4.88
2023-03-21T03:42:55.511Z,5.20
2023-03-21T03:46:14.657Z,5.17
2023-03-21T03:49:24.274Z,5.20
2023-03-21T03:52:30.014Z,4.47
2023-03-21T03:55:38.856Z,5.15
2023-03-21T03:58:49.325Z,4.70
2023-03-21T04:01:55.150Z,4.60
2023-03-21T04:04:57.941Z,4.85
2023-03-21T04:08:00.561Z,5.00
2023-03-21T04:11:12.867Z,4.85
2023-03-21T04:14:16.052Z,4.37
2023-03-21T04:17:20.242Z,4.53
2023-03-21T04:20:35.992Z,4.10
2023-03-21T04:23:40.810Z,4.68
2023-03-21T04:26:44.257Z,4.43
2023-03-21T04:30:13.124Z,3.90
2023-03-21T04:33:26.094Z,4.67
2023-03-21T04:36:38.875Z,3.17
2023-03-21T04:39:43.224Z,5.10
2023-03-21T04:42:47.038Z,4.43
2023-03-21T04:45:50.557Z,4.27
2023-03-21T04:48:53.377Z,5.23
2023-03-21T04:51:55.808Z,4.60
2023-03-21T04:54:58.349Z,4.80
2023-03-21T04:58:01.363Z,3.95
2023-03-21T05:01:06.053Z,3.73
2023-03-21T05:04:08.487Z,4.37
2023-03-21T05:07:11.438Z,3.65
2023-03-21T05:10:13.843Z,4.22
2023-03-21T05:13:17.021Z,4.40
2023-03-21T05:16:19.339Z,4.40
2023-03-21T05:19:35.311Z,4.20
2023-03-21T05:22:40.863Z,4.22
2023-03-21T05:25:47.099Z,4.07
2023-03-21T05:28:53.514Z,3.88
2023-03-21T05:31:57.018Z,4.27
2023-03-21T05:34:59.649Z,3.63
2023-03-21T05:38:02.838Z,4.30
2023-03-21T05:46:55.203Z,3.78
2023-03-21T05:50:04.581Z,3.33
2023-03-21T05:53:08.437Z,3.47
2023-03-21T05:56:10.926Z,3.55
2023-03-21T05:59:21.978Z,4.18
2023-03-21T06:02:28.364Z,3.97
2023-03-21T06:05:34.416Z,3.93
2023-03-21T06:08:36.891Z,3.97
2023-03-21T06:11:48.488Z,4.00
2023-03-21T06:14:53.384Z,3.92
2023-03-21T06:18:05.837Z,4.82
2023-03-21T06:21:09.882Z,4.17
2023-03-21T06:24:14.866Z,4.37
2023-03-21T06:27:17.525Z,4.75
2023-03-21T06:30:27.147Z,4.45
2023-03-21T06:33:39.849Z,4.13
2023-03-21T06:37:16.194Z,3.90
2023-03-21T06:41:26.894Z,4.00
2023-03-21T06:44:35.348Z,3.95
2023-03-21T06:47:42.300Z,5.35
2023-03-21T06:50:54.021Z,3.97
2023-03-21T06:53:58.190Z,4.20
2023-03-21T06:57:07.514Z,4.90
2023-03-21T07:00:11.679Z,4.97
2023-03-21T07:03:19.367Z,5.40
2023-03-21T07:06:26.627Z,4.65
2023-03-21T07:09:29.865Z,4.53
2023-03-21T07:12:37.726Z,4.30
2023-03-21T07:15:57.480Z,5.85
2023-03-21T07:19:00.841Z,4.47
2023-03-21T07:22:03.350Z,3.95
2023-03-21T07:25:08.325Z,4.53
2023-03-21T07:28:15.473Z,4.27
2023-03-21T07:31:17.943Z,3.90
2023-03-21T07:34:20.863Z,3.63
2023-03-21T07:37:24.040Z,3.72
2023-03-21T07:40:27.909Z,3.80
2023-03-21T07:43:30.506Z,3.80
2023-03-21T07:46:34.608Z,3.67
2023-03-21T07:49:37.855Z,4.03
2023-03-21T07:52:40.336Z,4.07
2023-03-21T07:55:42.716Z,4.10
2023-03-21T07:58:45.453Z,3.43
2023-03-21T08:01:48.062Z,3.40
2023-03-21T08:04:51.355Z,3.22
2023-03-21T08:07:53.856Z,3.20
2023-03-21T08:10:56.244Z,3.27
2023-03-21T08:13:59.714Z,3.00
2023-03-21T08:17:02.461Z,3.33
2023-03-21T08:20:09.244Z,3.22
2023-03-21T08:23:11.693Z,3.40
2023-03-21T08:26:18.166Z,2.97
2023-03-21T08:29:24.426Z,3.73
2023-03-21T08:32:30.277Z,2.60
2023-03-21T08:35:35.096Z,3.10
2023-03-21T08:38:37.675Z,2.95
2023-03-21T08:41:44.135Z,3.20
2023-03-21T08:44:51.707Z,2.67
2023-03-21T08:47:57.538Z,3.38
2023-03-21T08:51:01.736Z,2.30
2023-03-21T08:54:06.801Z,2.55
2023-03-21T08:57:09.553Z,2.97
2023-03-21T09:00:15.702Z,2.90
2023-03-21T09:03:22.033Z,2.28
2023-03-21T09:06:25.027Z,2.40
2023-03-21T09:09:30.434Z,2.42
2023-03-21T09:12:38.052Z,2.30
2023-03-21T09:15:40.998Z,2.20
2023-03-21T09:18:50.674Z,2.25
2023-03-21T09:21:53.976Z,1.90
2023-03-21T09:24:57.564Z,2.30
2023-03-21T09:28:01.069Z,1.70
2023-03-21T09:31:04.134Z,2.03
2023-03-21T09:34:06.557Z,1.90
2023-03-21T09:37:13.508Z,1.85
2023-03-21T09:40:24.204Z,1.67
2023-03-21T09:43:52.168Z,1.57
2023-03-21T09:47:22.671Z,1.83
2023-03-21T09:50:32.409Z,1.83
2023-03-21T09:58:02.467Z,1.80
2023-03-21T10:07:38.032Z,1.93
2023-03-21T10:10:50.361Z,2.05
2023-03-21T10:14:20.106Z,1.40
2023-03-21T10:17:37.775Z,1.77
2023-03-21T10:21:07.465Z,1.93
2023-03-21T10:24:15.899Z,1.90
2023-03-21T10:27:18.243Z,2.00
2023-03-21T10:30:39.033Z,1.95
2023-03-21T10:33:45.980Z,2.05
2023-03-21T10:36:50.811Z,1.43
2023-03-21T10:52:21.034Z,2.00
2023-03-21T10:55:33.811Z,2.10
2023-03-21T10:58:45.424Z,1.50
2023-03-21T11:01:55.507Z,1.52
2023-03-21T11:05:07.004Z,2.55
2023-03-21T11:08:14.135Z,1.40
2023-03-21T11:12:19.522Z,1.43
2023-03-21T11:15:40.334Z,1.80
2023-03-21T11:18:52.738Z,1.88
2023-03-21T11:21:58.218Z,1.98
2023-03-21T11:25:02.617Z,1.98
2023-03-21T11:28:19.402Z,2.13
2023-03-21T11:31:24.901Z,1.80
2023-03-21T11:34:32.556Z,1.90
2023-03-21T11:37:38.914Z,2.00
2023-03-21T11:41:09.628Z,1.90
2023-03-21T11:44:44.299Z,1.80
2023-03-21T11:47:49.462Z,1.70
2023-03-21T11:51:03.155Z,2.10
2023-03-21T11:54:25.431Z,2.63
2023-03-21T11:58:05.392Z,2.30
2023-03-21T12:05:24.568Z,1.97
2023-03-21T12:08:30.126Z,2.40
2023-03-21T12:12:13.250Z,2.40
2023-03-21T12:15:39.161Z,1.77
2023-03-21T12:18:56.750Z,1.53
2023-03-21T12:23:02.825Z,1.50
2023-03-21T12:27:09.462Z,1.95
2023-03-21T12:30:14.212Z,1.75
2023-03-21T12:33:37.992Z,1.88
2023-03-21T12:36:54.301Z,1.63
2023-03-21T12:40:09.979Z,1.70
2023-03-21T12:43:36.937Z,1.40
2023-03-21T12:47:01.134Z,1.20
2023-03-21T12:50:36.954Z,1.30
2023-03-21T12:53:48.454Z,1.63
2023-03-21T12:56:58.956Z,2.00
2023-03-21T13:00:21.965Z,1.80
2023-03-21T13:03:44.066Z,1.75
2023-03-21T13:06:47.511Z,1.75
2023-03-21T13:09:51.827Z,1.90
2023-03-21T13:13:28.794Z,1.60
2023-03-21T13:16:33.050Z,1.60
2023-03-21T13:19:51.679Z,1.60
2023-03-21T13:22:54.292Z,1.30
2023-03-21T13:25:57.888Z,1.80
2023-03-21T13:29:02.540Z,1.30
2023-03-21T13:32:20.973Z,1.40
2023-03-21T13:35:29.457Z,1.20
2023-03-21T13:38:34.473Z,1.15
2023-03-21T13:41:42.096Z,1.17
2023-03-21T13:44:50.397Z,0.93
2023-03-21T13:48:12.963Z,0.70
2023-03-21T13:51:24.217Z,1.10
2023-03-21T13:54:30.011Z,1.23
2023-03-21T13:57:33.309Z,1.30
2023-03-21T14:00:39.852Z,1.13
2023-03-21T14:03:42.798Z,1.00
2023-03-21T14:06:47.936Z,1.10
2023-03-21T14:09:52.705Z,1.40
2023-03-21T14:12:55.056Z,1.20
2023-03-21T14:16:04.566Z,1.60
2023-03-21T14:19:10.238Z,1.10
2023-03-21T14:22:13.878Z,1.00
2023-03-21T14:25:18.214Z,1.60
2023-03-21T14:28:29.575Z,1.20
2023-03-21T14:31:33.055Z,1.10
2023-03-21T14:34:35.887Z,1.20
2023-03-21T14:37:41.651Z,0.88
2023-03-21T14:40:53.744Z,0.95
2023-03-21T14:44:12.610Z,1.30
2023-03-21T14:47:20.998Z,1.30
2023-03-21T14:50:32.952Z,1.00
2023-03-21T14:53:40.949Z,0.90
2023-03-21T14:56:47.760Z,1.08
2023-03-21T14:59:56.724Z,0.90
2023-03-21T15:03:00.964Z,1.57
2023-03-21T15:06:04.057Z,1.27
2023-03-21T15:09:06.536Z,1.50
2023-03-21T15:12:09.393Z,1.90
2023-03-21T15:15:14.565Z,1.33
2023-03-21T15:18:23.899Z,1.27
2023-03-21T15:21:42.388Z,1.30
2023-03-21T15:24:58.768Z,1.67
2023-03-21T15:28:01.576Z,1.30
2023-03-21T15:31:05.265Z,1.10
2023-03-21T15:34:08.503Z,1.10
2023-03-21T15:37:37.671Z,1.20
2023-03-21T15:40:40.552Z,1.00
2023-03-21T15:43:43.863Z,1.60
2023-03-21T15:46:52.638Z,1.70
2023-03-21T15:49:55.876Z,1.70
2023-03-21T15:53:00.725Z,2.00
2023-03-21T15:56:06.143Z,1.98
2023-03-21T15:59:12.996Z,2.08
2023-03-21T16:02:22.118Z,1.80
2023-03-21T16:05:30.933Z,1.80
2023-03-21T16:08:35.917Z,2.13
2023-03-21T16:11:40.933Z,1.67
2023-03-21T16:14:43.646Z,1.63
2023-03-21T16:17:52.101Z,2.27
2023-03-21T16:20:57.253Z,1.77
2023-03-21T16:23:59.745Z,1.75
2023-03-21T16:27:02.581Z,1.77
2023-03-21T16:30:06.773Z,1.67
2023-03-21T16:33:12.859Z,1.73
2023-03-21T16:36:21.531Z,1.63
2023-03-21T16:39:26.426Z,1.50
2023-03-21T16:42:28.706Z,1.90
2023-03-21T16:45:31.824Z,1.90
2023-03-21T16:48:34.829Z,1.80
2023-03-21T16:51:37.134Z,2.00
2023-03-21T16:54:40.874Z,2.60
2023-03-21T16:57:43.647Z,2.38
2023-03-21T17:00:46.500Z,2.30
2023-03-21T17:03:48.988Z,2.13
2023-03-21T17:06:53.283Z,2.47
2023-03-21T17:09:55.848Z,2.60
2023-03-21T17:12:58.322Z,2.85
2023-03-21T17:16:00.817Z,2.50
2023-03-21T17:19:04.540Z,2.67
2023-03-21T17:22:07.229Z,2.83
2023-03-21T17:25:09.677Z,3.08
2023-03-21T17:28:12.098Z,3.10
2023-03-21T17:31:16.267Z,3.15
2023-03-21T17:34:18.793Z,3.20
2023-03-21T17:37:26.071Z,2.80
2023-03-21T17:40:31.139Z,2.92
2023-03-21T17:43:33.393Z,2.72
2023-03-21T17:46:37.260Z,2.85
2023-03-21T17:49:39.665Z,2.80
2023-03-21T17:52:42.333Z,3.30
2023-03-21T17:55:44.625Z,3.08
2023-03-21T17:58:47.328Z,3.13
2023-03-21T18:01:49.637Z,3.17
2023-03-21T18:04:52.100Z,3.13
2023-03-21T18:08:09.423Z,3.23
2023-03-21T18:11:13.144Z,3.55
2023-03-21T18:14:19.093Z,3.60
2023-03-21T18:17:22.753Z,3.40
2023-03-21T18:20:44.481Z,3.43
2023-03-21T18:23:50.067Z,3.07
2023-03-21T18:26:52.411Z,3.67
2023-03-21T18:30:25.897Z,3.22
2023-03-21T18:33:17.645Z,3.88
2023-03-21T18:36:25.417Z,4.10
2023-03-21T18:39:30.199Z,3.50
2023-03-21T18:42:32.879Z,3.67
2023-03-21T18:45:35.286Z,3.30
2023-03-21T18:48:37.514Z,4.03
2023-03-21T18:51:40.116Z,3.93
2023-03-21T18:54:42.943Z,3.87
2023-03-21T18:57:45.844Z,3.83
2023-03-21T19:00:49.991Z,4.25
2023-03-21T19:04:17.812Z,4.30
2023-03-21T19:07:22.089Z,4.07
2023-03-21T19:10:24.617Z,4.03
2023-03-21T19:13:27.226Z,4.07
2023-03-21T19:16:32.644Z,4.03
2023-03-21T19:19:42.112Z,4.60
2023-03-21T19:22:45.509Z,4.90
2023-03-21T19:25:47.840Z,4.70
2023-03-21T19:28:50.180Z,4.35
2023-03-21T19:31:53.144Z,4.20
2023-03-21T19:34:56.005Z,4.60
2023-03-21T19:37:58.297Z,4.20
2023-03-21T19:41:01.583Z,4.10
2023-03-21T19:44:05.621Z,4.65
2023-03-21T19:47:07.921Z,4.32
2023-03-21T19:53:33.064Z,4.20
2023-03-21T19:56:35.495Z,4.10
2023-03-21T19:59:38.791Z,3.90
2023-03-21T20:02:41.355Z,4.10
2023-03-21T20:05:43.656Z,4.90
2023-03-21T20:12:08.506Z,4.30
2023-03-21T20:15:17.786Z,4.35
2023-03-21T20:18:24.104Z,4.70
2023-03-21T20:21:34.852Z,4.70
2023-03-21T20:24:43.601Z,4.93
2023-03-21T20:27:46.066Z,4.00
2023-03-21T20:30:53.802Z,4.40
2023-03-21T20:33:56.341Z,4.47
2023-03-21T20:36:59.004Z,4.20
2023-03-21T20:40:01.513Z,4.87
2023-03-21T20:43:33.438Z,4.43
2023-03-21T20:46:28.400Z,4.82
2023-03-21T20:49:30.758Z,4.60
2023-03-21T20:55:55.877Z,4.83
2023-03-21T20:59:12.223Z,4.17
2023-03-21T21:02:17.927Z,4.20
2023-03-21T21:05:35.712Z,4.50
2023-03-21T21:08:38.783Z,4.75
2023-03-21T21:15:03.924Z,4.30
2023-03-21T21:18:07.639Z,4.43
2023-03-21T21:21:10.691Z,4.75
2023-03-21T21:24:14.592Z,4.55
2023-03-21T21:27:17.262Z,4.63
2023-03-21T21:30:19.639Z,4.80
2023-03-21T21:33:22.715Z,5.18
2023-03-21T21:36:25.079Z,5.60
2023-03-21T21:39:27.781Z,4.95
2023-03-21T21:42:30.105Z,4.83
2023-03-21T21:45:32.556Z,5.20
2023-03-21T21:48:35.020Z,5.53
2023-03-21T21:51:37.397Z,5.32
2023-03-21T21:54:46.040Z,6.18
2023-03-21T21:57:50.775Z,6.40
2023-03-21T22:00:53.830Z,6.23
2023-03-21T22:03:57.681Z,6.07
2023-03-21T22:07:00.074Z,6.20
2023-03-21T22:10:02.308Z,6.18
2023-03-21T22:13:04.641Z,6.20
2023-03-21T22:16:07.475Z,6.17
2023-03-21T22:19:09.908Z,5.68
2023-03-21T22:22:12.218Z,6.10
2023-03-21T22:25:16.141Z,5.97
2023-03-21T22:28:22.126Z,5.90
2023-03-21T22:31:26.176Z,6.20
2023-03-21T22:34:28.506Z,6.60
2023-03-21T22:37:32.961Z,6.35
2023-03-21T22:40:35.563Z,6.25
2023-03-21T22:43:38.147Z,6.83
2023-03-21T22:46:40.859Z,6.50
2023-03-21T22:49:45.561Z,6.63
2023-03-21T22:52:47.884Z,6.35
2023-03-21T22:55:50.549Z,6.97
2023-03-21T22:58:52.986Z,6.87
2023-03-21T23:01:55.788Z,6.60
2023-03-21T23:04:58.091Z,6.95
2023-03-21T23:08:00.566Z,7.38
2023-03-21T23:11:09.846Z,6.47
2023-03-21T23:14:15.284Z,7.60
2023-03-21T23:17:17.728Z,7.33
2023-03-21T23:20:20.029Z,7.85
2023-03-21T23:23:22.304Z,8.15
2023-03-21T23:26:24.594Z,7.35
2023-03-21T23:29:26.929Z,8.37
2023-03-21T23:32:29.191Z,8.40
2023-03-21T23:35:34.779Z,8.73
2023-03-21T23:38:37.148Z,8.55
2023-03-21T23:41:41.495Z,9.15
2023-03-21T23:44:43.803Z,8.90
2023-03-21T23:47:46.120Z,8.63
2023-03-21T23:50:48.474Z,8.15
2023-03-21T23:53:51.535Z,9.07
2023-03-21T23:56:53.868Z,8.93
2023-03-21T23:59:56.300Z,8.70
